Latest Weather Observations for Mullion

IDN60901

Issued at 7:01 pm EDT Saturday 10 December 2022 (issued every 10 minutes, with the page automatically refreshed every 10 minutes)

About weather observations | Map of Canberra area stations | Latest observations for Canberra area | Other Formats
Station Details ID: 250070 Name: MULLION (PCS) Lat: -35.11 Lon: 148.85 Height: 750.0 m

Portable automatic weather stations (PAWS) are operated by other organisations, such as Fire and Emergency Services, and are included here by agreement. Portable stations may be deployed to a location for a short period and their location may be subject to change without notice. Wind observations from these stations are provided from heights of either three (3) or ten (10) metres above ground level (AGL).

Data from the previous 72 hours. | See also: Recent months for locations in Aust Capital Territory
Date/Time
EDT
Temp
°C
App
Temp
°C
Dew
Point
°C
Rel
Hum
%
Delta-T
°C
Wind Press
QNH
hPa
Press
MSL
hPa
Rain since
9am
mm
Dir  Spd
km/h
Gust
km/h
Spd
kts
Gust
kts
10/06:50pm 20.3 16.6 4.2 34 8.1 N 13 17 7 9 1015.2 - 0.0
10/06:40pm 20.7 17.8 4.5 34 8.2 NW 9 11 5 6 1015.2 - 0.0
10/06:30pm 20.6 17.1 3.4 32 8.5 N 11 13 6 7 1015.2 - 0.0
10/06:20pm 20.9 17.7 1.0 26 9.4 N 7 11 4 6 1015.2 - 0.0
10/06:10pm 20.8 18.3 4.5 34 8.2 NNW 7 13 4 7 1015.1 - 0.0
10/06:00pm 20.9 16.5 2.6 30 8.9 N 15 19 8 10 1015.1 - 0.0
10/05:50pm 21.7 19.4 4.7 33 8.7 NE 6 11 3 6 1015.2 - 0.0
10/05:40pm 21.7 19.3 1.9 27 9.6 WNW 4 7 2 4 1015.3 - 0.0
10/05:30pm 21.8 18.4 1.8 26 9.7 NNW 9 17 5 9 1015.5 - 0.0
10/05:20pm 22.0 18.9 3.5 29 9.2 NW 9 13 5 7 1015.6 - 0.0
10/05:10pm 21.6 18.3 2.7 28 9.3 WNW 9 13 5 7 1015.8 - 0.0
10/05:00pm 21.7 17.8 1.3 26 9.8 NW 11 13 6 7 1015.8 - 0.0
10/04:50pm 22.2 19.4 2.9 28 9.5 NW 7 11 4 6 1015.8 - 0.0
10/04:40pm 22.4 20.2 3.3 28 9.5 WNW 4 9 2 5 1015.9 - 0.0
10/04:30pm 22.0 18.4 3.1 29 9.4 NNW 11 17 6 9 1015.9 - 0.0
10/04:20pm 21.8 19.1 3.7 30 9.1 N 7 9 4 5 1016.0 - 0.0
10/04:10pm 21.8 19.3 4.0 31 9.0 NNW 6 11 3 6 1016.2 - 0.0
10/04:00pm 21.1 17.9 5.0 35 8.2 NW 11 17 6 9 1016.3 - 0.0
10/03:50pm 20.9 17.5 5.9 37 7.8 NNW 13 17 7 9 1016.3 - 0.0
10/03:40pm 21.0 18.4 6.1 38 7.8 NNW 9 15 5 8 1016.3 - 0.0
10/03:30pm 21.3 18.4 4.5 33 8.5 N 9 17 5 9 1016.6 - 0.0
10/03:20pm 21.4 18.5 4.8 33 8.5 N 9 19 5 10 1016.6 - 0.0
10/03:10pm 21.1 18.7 7.2 40 7.4 N 9 17 5 9 1016.7 - 0.0
10/03:00pm 21.2 18.8 5.3 35 8.2 W 7 15 4 8 1016.8 - 0.0
10/02:50pm 20.3 17.6 5.8 38 7.5 W 9 13 5 7 1016.9 - 0.0
10/02:40pm 20.7 17.7 6.0 38 7.6 N 11 15 6 8 1016.9 - 0.0
10/02:30pm 20.9 19.0 6.6 39 7.5 ENE 6 13 3 7 1017.2 - 0.0
10/02:20pm 20.4 18.4 8.6 46 6.4 ENE 9 15 5 8 1017.2 - 0.0
10/02:10pm 21.1 18.5 5.9 37 7.9 E 9 13 5 7 1017.4 - 0.0
10/02:00pm 20.0 18.1 6.6 41 7.0 W 6 7 3 4 1017.6 - 0.0
10/01:50pm 21.1 18.7 5.4 36 8.1 N 7 11 4 6 1017.8 - 0.0
10/01:40pm 21.2 18.8 8.7 44 6.8 NE 11 17 6 9 1017.9 - 0.0
10/01:30pm 20.6 18.9 8.3 45 6.7 NE 7 13 4 7 1018.0 - 0.0
10/01:20pm 20.2 18.2 8.7 47 6.3 NE 9 11 5 6 1018.2 - 0.0
10/01:10pm 20.4 18.1 5.9 38 7.5 NE 7 9 4 5 1018.4 - 0.0
10/01:00pm 19.6 17.8 7.1 44 6.6 N 6 11 3 6 1018.5 - 0.0
10/12:50pm 18.9 15.9 6.1 43 6.6 NW 11 13 6 7 1018.6 - 0.0
10/12:40pm 20.0 17.8 6.0 40 7.2 NNE 7 15 4 8 1018.7 - 0.0
10/12:30pm 19.2 17.3 7.4 46 6.2 NE 7 9 4 5 1018.9 - 0.0
10/12:20pm 18.6 16.7 6.7 46 6.2 NE 6 9 3 5 1018.9 - 0.0
10/12:10pm 18.3 16.1 5.4 42 6.5 E 6 9 3 5 1019.0 - 0.0
10/12:00pm 17.5 15.2 4.8 43 6.3 SE 6 9 3 5 1019.1 - 0.0
10/11:50am 16.7 14.5 6.1 49 5.4 SE 7 11 4 6 1019.1 - 0.0
10/11:40am 17.5 15.6 6.7 49 5.6 ENE 6 7 3 4 1019.1 - 0.0
10/11:30am 17.1 14.3 5.3 45 5.9 ENE 9 13 5 7 1019.2 - 0.0
10/11:20am 15.5 12.3 5.2 50 5.1 ESE 11 17 6 9 1019.2 - 0.0
10/11:10am 15.8 12.5 6.5 54 4.7 ESE 13 17 7 9 1019.1 - 0.0
10/11:00am 15.4 12.1 6.2 54 4.6 ESE 13 19 7 10 1019.1 - 0.0
10/10:50am 16.2 14.0 6.3 52 5.0 ESE 7 17 4 9 1019.3 - 0.0
10/10:40am 15.0 11.6 5.8 54 4.6 E 13 20 7 11 1019.5 - 0.0
10/10:30am 15.0 12.6 5.3 52 4.8 ENE 7 13 4 7 1019.6 - 0.0
10/10:20am 15.3 11.0 5.2 51 5.0 E 17 20 9 11 1019.6 - 0.0
10/10:10am 14.9 11.8 5.5 53 4.7 E 11 22 6 12 1019.7 - 0.0
10/10:00am 14.0 10.6 6.1 59 3.9 E 13 15 7 8 1019.8 - 0.0
10/09:50am 13.7 9.6 6.0 59 3.8 ESE 17 22 9 12 1019.7 - 0.0
10/09:40am 14.0 9.9 6.0 58 4.0 E 17 20 9 11 1019.8 - 0.0
10/09:30am 13.0 8.7 5.2 59 3.8 ESE 17 20 9 11 1019.8 - 0.0
10/09:20am 12.2 7.6 6.5 68 2.8 ESE 20 24 11 13 1020.0 - 0.0
10/09:10am 12.7 8.5 5.9 63 3.3 ESE 17 20 9 11 1020.0 - 0.0
10/09:00am 12.1 7.3 5.7 65 3.1 ESE 20 22 11 12 1020.0 - 0.0
10/08:50am 12.0 7.2 5.8 66 3.0 ESE 20 24 11 13 1020.1 - 0.0
10/08:40am 12.0 7.5 6.1 67 2.9 ESE 19 22 10 12 1020.2 - 0.0
10/08:30am 11.8 7.1 5.2 64 3.2 ESE 19 24 10 13 1020.0 - 0.0
10/08:20am 11.5 6.9 5.4 66 2.9 SE 19 22 10 12 1019.8 - 0.0
10/08:10am 11.2 6.2 4.8 64 3.0 SE 20 26 11 14 1019.8 - 0.0
10/08:00am 11.0 5.9 4.3 63 3.1 SE 20 22 11 12 1019.8 - 0.0
10/07:50am 11.1 6.1 4.7 64 3.0 SE 20 22 11 12 1019.7 - 0.0
10/07:40am 10.8 5.8 4.4 64 3.0 SE 20 22 11 12 1019.6 - 0.0
10/07:30am 10.6 5.7 4.3 65 2.9 SSE 19 22 10 12 1019.5 - 0.0
10/07:20am 10.1 5.6 4.4 68 2.7 SSE 17 19 9 10 1019.5 - 0.0
10/07:10am 9.8 5.0 4.8 71 2.3 SSE 19 20 10 11 1019.3 - 0.0
10/07:00am 9.4 4.4 4.4 71 2.3 SSE 20 20 11 11 1019.1 - 0.0
10/06:50am 9.0 4.2 4.5 73 2.1 SSE 19 19 10 10 1019.0 - 0.0
10/06:40am 8.1 3.2 4.1 76 1.8 SSE 19 19 10 10 1018.8 - 0.0
10/06:30am 7.8 2.9 4.2 78 1.6 SSE 19 19 10 10 1018.7 - 0.0
10/06:20am 7.7 2.8 4.3 79 1.5 SSE 19 19 10 10 1018.5 - 0.0
10/06:10am 7.7 2.7 4.4 79 1.5 SSE 20 20 11 11 1018.4 - 0.0
10/06:00am 7.6 2.8 4.7 82 1.3 SSE 19 20 10 11 1018.4 - 0.0
10/05:50am 7.8 3.0 4.9 82 1.3 SSE 19 20 10 11 1018.3 - 0.0
10/05:40am 7.8 3.1 5.3 84 1.2 SSE 19 20 10 11 1018.3 - 0.0
10/05:30am 7.9 3.1 5.4 84 1.2 SSE 20 22 11 12 1018.1 - 0.0
10/05:20am 7.9 3.2 6.2 89 0.8 SSE 20 20 11 11 1018.1 - 0.0
10/05:10am 8.0 3.0 6.3 89 0.8 SSE 22 24 12 13 1017.9 - 0.0
10/05:00am 8.1 3.2 6.7 91 0.7 SE 22 24 12 13 1017.8 - 0.0
10/04:50am 8.0 3.1 6.8 92 0.6 SSE 22 24 12 13 1017.7 - 0.0
10/04:40am 8.0 3.4 6.7 91 0.6 SSE 20 22 11 12 1017.8 - 0.0
10/04:30am 8.1 3.2 6.9 92 0.6 SSE 22 24 12 13 1017.6 - 0.0
10/04:20am 8.1 2.4 6.9 92 0.6 SSE 26 26 14 14 1017.6 - 0.0
10/04:10am 8.0 2.3 6.8 92 0.6 SSE 26 28 14 15 1017.5 - 0.0
10/04:00am 8.0 2.3 6.6 91 0.7 SSE 26 30 14 16 1017.5 - 0.0
10/03:50am 8.0 2.3 6.6 91 0.7 SE 26 28 14 15 1017.4 - 0.0
10/03:40am 8.0 1.9 6.4 90 0.8 SE 28 30 15 16 1017.5 - 0.0
10/03:30am 8.1 2.2 5.8 85 1.1 SE 26 30 14 16 1017.6 - 0.0
10/03:20am 8.1 2.1 5.4 83 1.3 SE 26 28 14 15 1017.6 - 0.0
10/03:10am 8.2 1.8 5.4 82 1.3 SE 28 30 15 16 1017.6 - 0.0
10/03:00am 8.3 1.6 5.4 82 1.4 SE 30 32 16 17 1017.5 - 0.0
10/02:50am 8.4 2.1 5.9 84 1.2 SE 28 30 15 16 1017.5 - 0.0
10/02:40am 8.5 2.0 6.3 86 1.1 SE 30 32 16 17 1017.6 - 0.0
10/02:30am 8.5 2.0 6.5 87 1.0 SE 30 33 16 18 1017.4 - 0.0
10/02:20am 8.5 1.8 7.2 91 0.6 SSE 32 32 17 17 1017.5 - 0.0
10/02:10am 8.6 2.0 7.7 94 0.4 SSE 32 33 17 18 1017.5 - 0.0
10/02:00am 8.7 1.9 7.5 92 0.6 SSE 33 35 18 19 1017.8 - 0.0
10/01:50am 8.7 1.6 6.6 87 1.0 SE 33 35 18 19 1017.7 - 0.0
10/01:40am 8.7 1.7 7.0 89 0.8 SE 33 35 18 19 1017.9 - 0.0
10/01:30am 8.6 1.9 7.2 91 0.7 SE 32 35 17 19 1018.0 - 0.0
10/01:20am 8.6 2.1 8.1 97 0.3 SSE 32 33 17 18 1018.1 - 0.0
10/01:10am 8.8 2.7 8.2 96 0.3 SSE 30 33 16 18 1018.2 - 0.0
10/01:00am 9.1 3.0 8.1 93 0.5 SE 30 35 16 19 1018.5 - 0.0
10/12:50am 9.3 3.4 7.6 89 0.8 ESE 28 35 15 19 1018.5 - 0.0
10/12:40am 9.4 3.1 7.6 88 0.9 ESE 30 32 16 17 1018.5 - 0.0
10/12:30am 9.4 2.8 7.7 89 0.8 ESE 32 33 17 18 1018.5 - 0.0
10/12:20am 9.4 2.8 7.6 88 0.9 ESE 32 33 17 18 1018.4 - 0.0
10/12:10am 9.4 3.2 7.7 89 0.8 ESE 30 33 16 18 1018.4 - 0.0
10/12:00am 9.4 2.6 7.6 88 0.9 ESE 33 37 18 20 1018.1 - 0.0
 
Date/Time
EDT
Temp
°C
App
Temp
°C
Dew
Point
°C
Rel
Hum
%
Delta-T
°C
Wind Press
QNH
hPa
Press
MSL
hPa
Rain since
9am
mm
Dir  Spd
km/h
Gust
km/h
Spd
kts
Gust
kts
09/11:50pm 9.3 2.5 7.6 89 0.8 ESE 33 35 18 19 1018.3 - 0.0
09/11:40pm 9.4 2.6 7.7 89 0.8 ESE 33 35 18 19 1018.2 - 0.0
09/11:30pm 9.4 2.8 7.7 89 0.8 ESE 32 37 17 20 1018.1 - 0.0
09/11:20pm 9.5 2.9 7.8 89 0.8 ESE 32 35 17 19 1018.2 - 0.0
09/11:10pm 9.6 2.4 7.7 88 0.9 ESE 35 37 19 20 1018.1 - 0.0
09/11:00pm 9.4 2.8 7.7 89 0.8 ESE 32 33 17 18 1018.0 - 0.0
09/10:50pm 9.4 2.7 7.5 88 0.9 ESE 32 33 17 18 1018.1 - 0.0
09/10:40pm 9.3 2.6 7.3 87 1.0 ESE 32 33 17 18 1018.0 - 0.0
09/10:30pm 9.4 2.7 7.2 86 1.1 SE 32 33 17 18 1017.9 - 0.0
09/10:20pm 9.5 2.8 7.3 86 1.1 ESE 32 33 17 18 1017.7 - 0.0
09/10:10pm 9.7 2.8 7.3 85 1.2 ESE 33 35 18 19 1017.6 - 0.0
09/10:00pm 9.9 3.0 7.4 84 1.2 ESE 33 35 18 19 1017.5 - 0.0
09/09:50pm 10.5 3.2 7.3 80 1.6 ESE 35 39 19 21 1017.2 - 0.0
09/09:40pm 10.9 2.5 7.2 78 1.8 ESE 41 43 22 23 1016.9 - 0.0
09/09:30pm 11.3 3.6 7.1 75 2.1 ESE 37 43 20 23 1016.9 - 0.0
09/09:20pm 11.6 4.3 7.1 74 2.2 ESE 35 39 19 21 1016.5 - 0.0
09/09:10pm 12.1 4.4 7.3 72 2.4 ESE 37 39 20 21 1016.2 - 0.0
09/09:00pm 12.5 5.6 7.1 69 2.7 ESE 33 41 18 22 1015.8 - 0.0
09/08:50pm 12.8 6.4 6.8 67 3.0 ESE 30 33 16 18 1016.2 - 0.0
09/08:40pm 13.4 7.3 6.5 63 3.4 E 28 30 15 16 1015.9 - 0.0
09/08:30pm 15.1 12.0 7.2 59 4.1 NNE 13 28 7 15 1015.7 - 0.0
09/08:20pm 15.8 12.3 1.5 38 6.6 NW 9 9 5 5 1015.5 - 0.0
09/08:10pm 15.8 12.4 2.1 39 6.4 NW 9 11 5 6 1015.3 - 0.0
09/08:00pm 16.3 12.6 2.5 39 6.5 NW 11 13 6 7 1015.1 - 0.0
09/07:50pm 17.0 12.5 2.3 37 6.9 NNW 15 19 8 10 1015.0 - 0.0
09/07:40pm 17.4 13.3 2.1 36 7.2 NNW 13 17 7 9 1014.8 - 0.0
09/07:30pm 17.8 13.5 3.3 38 7.0 NNW 15 19 8 10 1014.6 - 0.0
09/07:20pm 18.4 14.3 2.4 34 7.6 NNW 13 17 7 9 1014.5 - 0.0
09/07:10pm 18.4 13.9 1.9 33 7.8 NW 15 15 8 8 1014.5 - 0.0
09/07:00pm 17.9 13.4 2.2 35 7.4 NNW 15 19 8 10 1014.3 - 0.0
09/06:50pm 18.6 13.4 2.2 33 7.8 NNW 19 22 10 12 1014.2 - 0.0
09/06:40pm 18.9 13.7 2.7 34 7.8 NW 19 20 10 11 1014.1 - 0.0
09/06:30pm 19.2 14.8 2.6 33 8.0 NW 15 24 8 13 1014.0 - 0.0
09/06:20pm 19.4 15.4 3.0 33 8.0 WNW 13 15 7 8 1013.9 - 0.0
09/06:10pm 19.1 14.3 2.4 33 8.0 NW 17 22 9 12 1013.8 - 0.0
09/06:00pm 19.4 15.3 4.2 36 7.6 NNW 15 20 8 11 1013.7 - 0.0
09/05:50pm 19.4 15.7 4.5 37 7.5 N 13 19 7 10 1013.6 - 0.0
09/05:40pm 19.3 14.6 3.2 34 7.8 N 17 20 9 11 1013.5 - 0.0
09/05:30pm 19.7 15.4 3.5 34 8.0 NW 15 19 8 10 1013.6 - 0.0
09/05:20pm 19.3 15.7 4.8 38 7.3 WNW 13 20 7 11 1013.6 - 0.0
09/05:10pm 19.2 14.6 3.9 36 7.6 WNW 17 22 9 12 1013.7 - 0.0
09/05:00pm 19.3 14.7 3.8 36 7.6 WNW 17 24 9 13 1013.8 - 0.0
09/04:50pm 19.2 13.9 3.1 34 7.8 NW 20 28 11 15 1013.8 - 0.0
09/04:40pm 19.0 14.2 4.5 38 7.2 WNW 19 20 10 11 1013.7 - 0.0
09/04:30pm 19.0 13.9 4.2 37 7.3 NW 20 26 11 14 1013.9 - 0.0
09/04:20pm 18.7 13.8 4.1 38 7.2 NW 19 26 10 14 1013.9 - 0.0
09/04:10pm 18.8 13.7 3.3 35 7.5 WNW 19 28 10 15 1013.9 - 0.0
09/04:00pm 18.6 13.2 2.7 34 7.6 NW 20 24 11 13 1013.9 - 0.0
09/03:50pm 17.5 12.4 2.8 37 7.0 WNW 19 22 10 12 1014.0 - 0.0
09/03:40pm 18.0 14.3 4.2 40 6.8 N 13 17 7 9 1014.0 - 0.0
09/03:30pm 16.7 13.5 3.2 40 6.5 NNW 9 19 5 10 1014.1 - 0.0
09/03:20pm 16.8 12.0 2.6 38 6.7 NNW 17 22 9 12 1014.1 - 0.0
09/03:10pm 17.4 13.8 2.8 37 7.0 N 11 19 6 10 1014.1 - 0.0
09/03:00pm 17.9 13.6 3.0 37 7.2 N 15 19 8 10 1014.2 - 0.0
09/02:50pm 20.0 17.5 5.0 37 7.6 N 7 17 4 9 1014.1 - 0.0
09/02:40pm 19.6 16.1 3.3 34 8.0 NNW 11 15 6 8 1014.2 - 0.0
09/02:30pm 19.1 16.1 6.1 42 6.7 NW 11 15 6 8 1014.4 - 0.0
09/02:20pm 20.2 18.1 5.9 39 7.4 N 6 9 3 5 1014.4 - 0.0
09/02:10pm 19.3 16.7 4.4 37 7.4 N 7 15 4 8 1014.4 - 0.0
09/02:00pm 18.7 15.6 5.6 42 6.7 NNE 11 19 6 10 1014.5 - 0.0
09/01:50pm 18.2 15.2 4.1 39 6.9 E 9 13 5 7 1014.5 - 0.0
09/01:40pm 17.8 15.0 3.4 38 7.0 NNW 7 13 4 7 1014.6 - 0.0
09/01:30pm 17.5 15.5 4.4 42 6.5 N 4 9 2 5 1014.6 - 0.0
09/01:20pm 15.8 13.3 5.0 48 5.3 NNW 7 11 4 6 1014.7 - 0.0
09/01:10pm 18.1 15.1 4.0 39 6.9 NNE 9 13 5 7 1014.7 - 0.0
09/01:00pm 17.7 15.4 5.0 43 6.3 E 6 13 3 7 1014.8 - 0.0
09/12:50pm 17.8 15.6 5.1 43 6.4 E 6 11 3 6 1014.9 - 0.0
09/12:40pm 17.2 14.9 4.6 43 6.2 ESE 6 9 3 5 1015.1 - 0.0
09/12:30pm 16.3 13.6 3.6 42 6.1 ESE 7 11 4 6 1015.1 - 0.0
09/12:20pm 15.1 12.6 4.8 50 5.0 E 7 9 4 5 1015.2 - 0.0
09/12:10pm 15.1 13.3 3.6 46 5.5 SSE 2 6 1 3 1015.2 - 0.0
09/12:00pm 15.2 12.9 2.6 42 5.9 NW 4 7 2 4 1015.3 - 0.0
09/11:50am 14.6 11.8 2.1 43 5.7 SE 6 11 3 6 1015.3 - 0.0
09/11:40am 14.5 11.6 4.6 51 4.8 ESE 9 13 5 7 1015.3 - 0.0
09/11:30am 15.3 12.4 4.5 48 5.2 ENE 9 13 5 7 1015.2 - 0.0
09/11:20am 14.5 11.2 4.7 51 4.8 NE 11 17 6 9 1015.3 - 0.0
09/11:10am 14.0 10.1 3.5 49 4.9 ESE 13 17 7 9 1015.4 - 0.0
09/11:00am 13.6 10.9 2.5 47 5.1 SE 6 13 3 7 1015.5 - 0.0
09/10:50am 13.0 9.3 2.2 48 4.9 ESE 11 15 6 8 1015.6 - 0.0
09/10:40am 13.1 8.8 3.0 50 4.7 E 15 20 8 11 1015.5 - 0.0
09/10:30am 12.8 8.7 4.1 55 4.1 E 15 19 8 10 1015.5 - 0.0
09/10:20am 11.6 7.1 1.9 51 4.3 E 15 20 8 11 1015.7 - 0.0
09/10:10am 11.6 6.3 1.8 51 4.4 ESE 19 22 10 12 1015.6 - 0.0
09/10:00am 11.6 5.7 1.6 50 4.4 ESE 22 28 12 15 1015.8 - 0.0
09/09:50am 11.1 5.3 2.3 54 3.9 SSE 22 26 12 14 1015.6 - 0.0
09/09:40am 11.0 4.6 1.1 50 4.3 SE 24 30 13 16 1015.5 - 0.0
09/09:30am 11.0 3.8 1.0 50 4.4 SSE 28 32 15 17 1015.5 - 0.0
09/09:20am 10.4 3.3 1.6 54 3.9 SE 28 30 15 16 1015.5 - 0.0
09/09:10am 10.2 3.4 3.0 61 3.3 SE 28 32 15 17 1015.5 - 0.0
09/09:00am 9.8 3.3 2.5 60 3.3 SSE 26 30 14 16 1015.6 - 0.0
09/08:50am 9.3 2.8 2.6 63 3.0 SSE 26 30 14 16 1015.5 - 0.0
09/08:40am 8.7 1.9 2.9 67 2.6 SE 28 30 15 16 1015.4 - 0.0
09/08:30am 8.3 1.3 2.2 65 2.7 SE 28 30 15 16 1015.3 - 0.0
09/08:20am 8.5 1.5 2.2 64 2.8 SE 28 30 15 16 1015.3 - 0.0
09/08:10am 7.7 -0.1 1.9 67 2.5 SE 32 33 17 18 1015.2 - 0.0
09/08:00am 7.4 -0.4 1.5 66 2.5 SE 32 35 17 19 1014.9 - 0.0
09/07:50am 7.3 -0.1 1.8 68 2.4 SE 30 32 16 17 1014.9 - 0.0
09/07:40am 6.9 -0.1 1.8 70 2.2 SE 28 32 15 17 1014.9 - 0.0
09/07:30am 6.5 -1.3 1.6 71 2.1 SSE 32 33 17 18 1014.6 - 0.0
09/07:20am 6.2 -1.3 1.5 72 2.0 SE 30 33 16 18 1014.6 - 0.0
09/07:10am 5.8 -1.6 1.6 74 1.8 SE 30 32 16 17 1014.4 - 0.0
09/07:00am 5.5 -0.7 2.1 79 1.4 SE 24 26 13 14 1014.5 - 0.0
09/06:50am 5.4 -0.4 2.1 79 1.4 SE 22 24 12 13 1014.3 - 0.0
09/06:40am 5.0 -1.7 1.7 79 1.4 SE 26 26 14 14 1014.1 - 0.0
09/06:30am 4.6 -2.5 1.5 80 1.3 SSE 28 30 15 16 1013.9 - 0.0
09/06:20am 4.5 -1.8 1.3 80 1.3 SE 24 26 13 14 1013.7 - 0.0
09/06:10am 4.4 -2.3 1.3 80 1.3 SE 26 28 14 15 1013.7 - 0.0
09/06:00am 4.3 -2.5 1.1 80 1.3 SE 26 26 14 14 1013.7 - 0.0
09/05:50am 4.2 -2.2 1.0 80 1.3 SE 24 26 13 14 1013.5 - 0.0
09/05:40am 4.4 -2.0 0.8 77 1.5 SSE 24 26 13 14 1013.6 - 0.0
09/05:30am 4.4 -2.0 0.9 78 1.4 SSE 24 26 13 14 1013.5 - 0.0
09/05:20am 4.5 -1.5 1.1 78 1.4 SSE 22 24 12 13 1013.5 - 0.0
09/05:10am 4.6 -1.4 0.9 77 1.5 SE 22 24 12 13 1013.4 - 0.0
09/05:00am 4.6 -1.4 0.8 76 1.5 SE 22 24 12 13 1013.5 - 0.0
09/04:50am 4.7 -1.4 0.7 75 1.6 SE 22 26 12 14 1013.7 - 0.0
09/04:40am 4.9 -1.9 0.8 75 1.7 SSE 26 28 14 15 1013.4 - 0.0
09/04:30am 5.0 -1.0 0.8 74 1.7 SSE 22 24 12 13 1013.3 - 0.0
09/04:20am 5.1 -1.3 0.7 73 1.8 SSE 24 26 13 14 1013.4 - 0.0
09/04:10am 5.2 -1.3 0.6 72 1.9 SSE 24 26 13 14 1013.3 - 0.0
09/04:00am 5.4 -1.1 0.4 70 2.0 S 24 26 13 14 1013.3 - 0.0
09/03:50am 5.4 -1.0 0.9 73 1.8 S 24 26 13 14 1013.3 - 0.0
09/03:40am 5.7 -0.3 0.9 71 2.0 S 22 24 12 13 1013.4 - 0.0
09/03:30am 5.7 -0.3 0.8 71 2.0 S 22 22 12 12 1013.4 - 0.0
09/03:20am 5.7 -0.3 1.1 72 1.9 S 22 24 12 13 1013.4 - 0.0
09/03:10am 5.8 -0.2 1.3 73 1.9 S 22 24 12 13 1013.4 - 0.0
09/03:00am 6.2 0.6 1.2 70 2.1 S 20 22 11 12 1013.4 - 0.0
09/02:50am 6.5 0.9 1.1 68 2.3 S 20 22 11 12 1013.3 - 0.0
09/02:40am 6.4 0.8 1.2 69 2.2 S 20 20 11 11 1013.4 - 0.0
09/02:30am 6.3 0.7 1.1 69 2.2 S 20 20 11 11 1013.4 - 0.0
09/02:20am 6.2 0.6 1.3 71 2.0 S 20 20 11 11 1013.3 - 0.0
09/02:10am 6.6 1.0 1.1 68 2.3 SSE 20 20 11 11 1013.4 - 0.0
09/02:00am 6.6 1.0 1.3 69 2.2 S 20 22 11 12 1013.4 - 0.0
09/01:50am 6.7 0.7 1.2 68 2.3 S 22 24 12 13 1013.5 - 0.0
09/01:40am 6.8 1.2 1.2 67 2.4 SSE 20 22 11 12 1013.5 - 0.0
09/01:30am 6.7 1.1 1.3 68 2.3 S 20 22 11 12 1013.6 - 0.0
09/01:20am 6.9 1.5 1.4 68 2.3 SSE 19 20 10 11 1013.8 - 0.0
09/01:10am 7.1 1.5 1.2 66 2.5 SSE 20 22 11 12 1013.8 - 0.0
09/01:00am 7.2 1.2 1.2 65 2.5 SSE 22 24 12 13 1013.8 - 0.0
09/12:50am 7.1 1.5 1.3 66 2.4 SSE 20 22 11 12 1013.9 - 0.0
09/12:40am 7.5 1.9 0.9 63 2.8 SSE 20 22 11 12 1014.1 - 0.0
09/12:30am 7.7 2.2 0.7 61 2.9 SSE 19 20 10 11 1014.2 - 0.0
09/12:20am 7.8 2.3 0.6 60 3.0 SSE 19 20 10 11 1014.1 - 0.0
09/12:10am 8.2 2.5 0.3 57 3.3 SSE 20 22 11 12 1014.2 - 0.0
09/12:00am 8.4 3.2 -0.2 54 3.5 SSE 17 19 9 10 1014.3 - 0.0
 
Date/Time
EDT
Temp
°C
App
Temp
°C
Dew
Point
°C
Rel
Hum
%
Delta-T
°C
Wind Press
QNH
hPa
Press
MSL
hPa
Rain since
9am
mm
Dir  Spd
km/h
Gust
km/h
Spd
kts
Gust
kts
08/11:50pm 8.6 3.8 -0.1 54 3.6 SSE 15 17 8 9 1014.3 - 0.0
08/11:40pm 8.9 3.3 -0.1 53 3.7 SSE 19 20 10 11 1014.2 - 0.0
08/11:30pm 9.2 4.3 -0.2 52 3.9 S 15 17 8 9 1014.1 - 0.0
08/11:20pm 9.6 5.1 0.0 51 4.0 SSE 13 15 7 8 1014.3 - 0.0
08/11:10pm 9.9 5.8 0.0 50 4.2 S 11 11 6 6 1014.1 - 0.0
08/11:00pm 10.0 6.0 0.3 51 4.1 SSE 11 13 6 7 1014.2 - 0.0
08/10:50pm 10.1 5.7 0.5 51 4.1 SSE 13 15 7 8 1013.9 - 0.0
08/10:40pm 10.4 6.5 1.4 53 3.9 SSW 11 11 6 6 1013.9 - 0.0
08/10:30pm 10.4 6.2 1.5 54 3.9 S 13 17 7 9 1013.8 - 0.0
08/10:20pm 10.5 6.6 1.2 52 4.0 SSE 11 19 6 10 1013.8 - 0.0
08/10:10pm 10.7 6.9 1.7 53 4.0 S 11 20 6 11 1013.6 - 0.0
08/10:00pm 10.8 4.5 1.4 52 4.1 SW 24 28 13 15 1013.5 - 0.0
08/09:50pm 10.8 3.7 1.5 52 4.1 WSW 28 30 15 16 1013.4 - 0.0
08/09:40pm 11.0 2.6 1.6 52 4.1 WSW 35 41 19 22 1013.1 - 0.0
08/09:30pm 11.2 2.3 1.0 49 4.4 WSW 37 41 20 22 1012.8 - 0.0
08/09:20pm 11.0 2.9 0.9 49 4.4 WSW 33 41 18 22 1012.6 - 0.0
08/09:10pm 11.1 3.0 0.9 49 4.4 WSW 33 37 18 20 1012.5 - 0.0
08/09:00pm 11.2 3.1 0.8 48 4.5 WSW 33 41 18 22 1012.3 - 0.0
08/08:50pm 11.1 3.7 1.6 52 4.2 WSW 30 32 16 17 1012.2 - 0.0
08/08:40pm 11.3 3.8 0.9 48 4.5 WSW 30 35 16 19 1012.1 - 0.0
08/08:30pm 11.4 3.9 0.9 48 4.6 WSW 30 37 16 20 1012.0 - 0.0
08/08:20pm 11.3 4.2 1.3 50 4.4 WSW 28 32 15 17 1011.9 - 0.0
08/08:10pm 11.8 5.4 1.0 47 4.7 W 24 28 13 15 1011.8 - 0.0
08/08:00pm 12.0 6.0 0.8 46 4.9 W 22 26 12 14 1011.8 - 0.0
08/07:50pm 12.8 6.0 0.5 43 5.4 W 26 32 14 17 1011.7 - 0.0
08/07:40pm 13.2 6.3 0.3 41 5.6 W 26 30 14 16 1011.5 - 0.0
08/07:30pm 13.5 5.9 0.5 41 5.7 WSW 30 37 16 20 1011.4 - 0.0
08/07:20pm 13.9 6.6 -0.1 38 6.1 W 28 33 15 18 1011.3 - 0.0
08/07:10pm 14.2 7.4 0.9 40 5.9 W 26 30 14 16 1011.0 - 0.0
08/07:00pm 14.5 7.6 0.1 37 6.3 W 26 33 14 18 1010.9 - 0.0
08/06:50pm 14.7 7.7 -0.2 36 6.5 W 26 30 14 16 1010.8 - 0.0
08/06:40pm 14.6 6.5 -0.1 36 6.4 W 32 37 17 20 1010.3 - 0.0
08/06:30pm 14.9 7.6 0.1 36 6.5 WSW 28 32 15 17 1010.3 - 0.0
08/06:20pm 14.8 6.8 0.4 37 6.4 WSW 32 37 17 20 1010.3 - 0.0
08/06:10pm 14.9 6.7 0.1 36 6.5 W 33 41 18 22 1010.2 - 0.0
08/06:00pm 15.3 8.4 0.3 36 6.7 W 26 30 14 16 1010.2 - 0.0
08/05:50pm 15.4 8.2 0.6 36 6.6 W 28 35 15 19 1010.1 - 0.0
08/05:40pm 15.6 8.4 0.7 36 6.7 W 28 30 15 16 1010.0 - 0.0
08/05:30pm 15.7 8.9 0.5 35 6.8 W 26 33 14 18 1010.0 - 0.0
08/05:20pm 16.2 10.2 0.8 35 7.0 W 22 28 12 15 1010.0 - 0.0
08/05:10pm 15.5 8.0 1.1 37 6.5 W 30 33 16 18 1009.8 - 0.0
08/05:00pm 15.5 7.5 0.2 35 6.8 W 32 33 17 18 1009.9 - 0.0
08/04:50pm 15.8 8.1 -0.2 33 7.1 W 30 37 16 20 1009.8 - 0.0
08/04:40pm 15.8 9.1 1.7 38 6.5 W 26 30 14 16 1009.8 - 0.0
08/04:30pm 15.5 8.2 0.2 35 6.8 W 28 32 15 17 1009.8 - 0.0
08/04:20pm 15.2 6.6 0.1 35 6.7 W 35 39 19 21 1009.8 - 0.0
08/04:10pm 15.3 7.1 0.5 36 6.6 W 33 41 18 22 1010.0 - 0.0
08/04:00pm 15.0 7.8 0.5 37 6.5 W 28 32 15 17 1009.8 - 0.0
08/03:50pm 15.7 8.3 2.1 40 6.3 WSW 30 43 16 23 1009.8 - 0.0
08/03:40pm 14.6 7.8 0.9 39 6.1 W 26 30 14 16 1009.7 - 0.0
08/03:30pm 16.0 9.8 2.2 39 6.4 W 24 28 13 15 1009.7 - 0.0
08/03:20pm 15.8 9.9 1.5 38 6.6 W 22 33 12 18 1009.8 - 0.0
08/03:10pm 15.7 7.8 1.2 37 6.6 WSW 32 41 17 22 1009.7 - 0.0
08/03:00pm 15.4 7.3 0.9 37 6.5 WSW 33 43 18 23 1009.6 - 0.0
08/02:50pm 14.2 6.2 0.6 39 6.0 WSW 32 39 17 21 1009.6 - 0.0
08/02:40pm 15.5 7.6 1.2 38 6.5 WSW 32 35 17 19 1009.9 - 0.0
08/02:30pm 15.6 8.5 1.6 38 6.4 WSW 28 35 15 19 1009.7 - 0.0
08/02:20pm 15.5 9.3 2.4 41 6.1 W 24 37 13 20 1009.6 - 0.0
08/02:10pm 14.9 7.8 1.4 40 6.1 W 28 43 15 23 1009.6 - 0.0
08/02:00pm 15.2 8.8 1.0 38 6.4 W 24 33 13 18 1009.6 - 0.0
08/01:50pm 14.9 6.4 1.2 39 6.2 WSW 35 44 19 24 1009.6 - 0.0
08/01:40pm 14.9 7.3 3.0 44 5.6 WSW 32 48 17 26 1009.6 - 0.0
08/01:30pm 13.8 5.3 0.8 41 5.8 W 35 39 19 21 1009.5 - 0.0
08/01:20pm 14.3 6.5 1.5 42 5.8 WSW 32 37 17 20 1009.9 - 0.0
08/01:10pm 14.2 4.9 0.9 40 5.9 WSW 39 48 21 26 1009.6 - 0.0
08/01:00pm 14.5 7.8 1.5 41 5.9 W 26 32 14 17 1009.6 - 0.0
08/12:50pm 13.8 6.1 2.2 45 5.3 W 32 43 17 23 1009.7 - 0.0
08/12:40pm 14.5 7.5 2.2 43 5.7 W 28 33 15 18 1009.6 - 0.0
08/12:30pm 14.5 7.2 2.5 44 5.6 W 30 39 16 21 1009.6 - 0.0
08/12:20pm 14.3 6.4 2.1 43 5.6 W 33 46 18 25 1009.3 - 0.0
08/12:10pm 13.3 4.6 1.8 45 5.2 W 37 43 20 23 1009.4 - 0.0
08/12:00pm 12.9 5.9 1.8 47 5.0 W 28 37 15 20 1009.6 - 0.0
08/11:50am 12.6 6.4 2.0 48 4.8 WNW 24 28 13 15 1009.5 - 0.0
08/11:40am 13.0 7.0 3.1 51 4.6 W 24 30 13 16 1009.4 - 0.0
08/11:30am 12.5 5.2 2.7 51 4.5 W 30 39 16 21 1009.4 - 0.0
08/11:20am 12.0 4.3 3.2 55 4.1 WNW 33 43 18 23 1009.3 - 0.0
08/11:10am 12.0 4.8 3.2 55 4.1 WNW 30 37 16 20 1009.1 - 0.0
08/11:00am 12.5 6.0 2.8 51 4.4 W 26 33 14 18 1009.3 - 0.0
08/10:50am 12.1 5.2 2.7 52 4.3 W 28 39 15 21 1009.2 - 0.0
08/10:40am 12.0 4.8 2.9 53 4.2 W 30 33 16 18 1009.1 - 0.0
08/10:30am 12.4 6.4 3.1 53 4.3 WNW 24 30 13 16 1009.3 - 0.0
08/10:20am 11.3 5.5 4.6 63 3.2 WNW 24 32 13 17 1009.2 - 0.0
08/10:10am 11.2 5.3 4.1 61 3.3 W 24 30 13 16 1009.2 - 0.0
08/10:00am 10.8 4.4 3.4 60 3.4 W 26 32 14 17 1009.2 - 0.0
08/09:50am 11.0 5.4 3.7 60 3.4 W 22 30 12 16 1009.2 - 0.0
08/09:40am 11.2 6.2 3.4 58 3.6 WNW 19 26 10 14 1009.1 - 0.0
08/09:30am 10.7 5.4 3.1 59 3.5 WNW 20 26 11 14 1009.2 - 0.0
08/09:20am 10.6 6.0 3.7 62 3.2 NW 17 22 9 12 1009.0 - 0.0
08/09:10am 10.5 5.8 3.1 60 3.4 W 17 20 9 11 1009.1 - 0.0
08/09:00am 10.3 5.2 3.3 62 3.2 W 19 22 10 12 1009.0 - 0.0
08/08:50am 9.7 4.4 3.1 63 3.0 WNW 20 26 11 14 1008.9 - 0.0
08/08:40am 9.6 4.8 2.8 62 3.0 WNW 17 24 9 13 1008.7 - 0.0
08/08:30am 9.2 4.5 2.9 64 2.8 NW 17 22 9 12 1008.6 - 0.0
08/08:20am 8.9 4.1 2.8 65 2.7 NW 17 24 9 13 1008.6 - 0.0
08/08:10am 8.5 2.4 3.0 68 2.4 NNW 24 28 13 15 1008.4 - 0.0
08/08:00am 8.2 2.1 3.0 70 2.3 NW 24 28 13 15 1008.2 - 0.0
08/07:50am 8.1 1.3 3.2 71 2.2 NNW 28 32 15 17 1008.0 - 0.0
08/07:40am 8.1 1.7 3.4 72 2.1 NW 26 33 14 18 1007.7 - 0.0
08/07:30am 8.0 1.7 3.5 73 2.0 NW 26 28 14 15 1007.7 - 0.0
08/07:20am 8.0 1.3 3.7 74 1.9 NW 28 32 15 17 1007.4 - 0.0
08/07:10am 8.2 2.4 4.3 76 1.8 NW 24 26 13 14 1007.3 - 0.0
08/07:00am 8.2 1.7 4.6 78 1.7 NNW 28 35 15 19 1007.1 - 0.0
08/06:50am 8.4 1.8 4.1 74 2.0 NNW 28 33 15 18 1007.0 - 0.0
08/06:40am 8.2 1.9 3.7 73 2.0 NNW 26 30 14 16 1006.9 - 0.0
08/06:30am 8.2 3.0 3.4 72 2.2 NNW 20 24 11 13 1006.8 - 0.0
08/06:20am 8.4 3.2 3.3 70 2.3 NNW 20 24 11 13 1006.8 - 0.0
08/06:10am 8.4 3.7 3.1 69 2.4 NNW 17 22 9 12 1006.7 - 0.0
08/06:00am 8.6 3.5 3.2 69 2.4 NNW 19 20 10 11 1006.7 - 0.0
08/05:50am 8.9 2.8 2.6 64 2.8 NW 24 28 13 15 1006.8 - 0.0
08/05:40am 8.9 3.6 2.9 66 2.7 WNW 20 24 11 13 1006.5 - 0.0
08/05:30am 9.5 4.7 2.5 61 3.1 NW 17 28 9 15 1006.4 - 0.0
08/05:20am 9.8 3.7 2.5 60 3.3 WNW 24 37 13 20 1006.3 - 0.0
08/05:10am 9.7 4.5 2.6 61 3.2 WNW 19 35 10 19 1006.3 - 0.0
08/05:00am 10.0 2.7 2.6 60 3.3 W 30 43 16 23 1006.2 - 0.0
08/04:50am 10.3 2.1 2.5 58 3.5 W 35 43 19 23 1006.1 - 0.0
08/04:40am 10.4 3.1 2.5 58 3.5 W 30 39 16 21 1006.2 - 0.0
08/04:30am 10.7 2.1 2.4 56 3.7 W 37 44 20 24 1006.1 - 0.0
08/04:20am 10.8 1.4 2.3 55 3.8 W 41 50 22 27 1006.0 - 0.0
08/04:10am 10.9 2.2 2.3 55 3.8 W 37 44 20 24 1005.4 - 0.0
08/04:00am 10.8 2.9 2.2 55 3.8 W 33 43 18 23 1005.2 - 0.0
08/03:50am 11.0 2.0 2.3 55 3.9 W 39 54 21 29 1005.1 - 0.0
08/03:40am 11.2 1.4 2.2 54 4.0 W 43 50 23 27 1005.0 - 0.0
08/03:30am 11.5 2.0 1.7 51 4.4 W 41 50 22 27 1004.7 - 0.0
08/03:20am 11.9 2.4 1.7 49 4.5 W 41 52 22 28 1004.8 - 0.0
08/03:10am 11.9 1.7 1.2 48 4.7 W 44 52 24 28 1004.9 - 0.0
08/03:00am 12.0 3.2 3.6 56 3.9 W 39 54 21 29 1004.9 - 0.0
08/02:50am 12.1 3.1 4.5 59 3.6 W 41 52 22 28 1004.8 - 0.0
08/02:40am 12.4 3.1 4.9 60 3.6 W 43 57 23 31 1004.6 - 0.0
08/02:30am 12.7 3.1 4.2 56 4.0 W 44 56 24 30 1004.4 - 0.0
08/02:20am 12.8 3.4 4.4 56 4.0 W 43 48 23 26 1004.5 - 0.0
08/02:10am 13.1 2.7 4.1 54 4.3 W 48 56 26 30 1004.8 - 0.0
08/02:00am 13.4 3.2 5.4 58 3.9 W 48 63 26 34 1004.7 - 0.0
08/01:50am 13.5 6.1 8.3 71 2.7 W 37 44 20 24 1004.8 - 0.0
08/01:40am 13.9 5.2 9.9 77 2.1 W 46 56 25 30 1005.0 - 0.0
08/01:30am 14.0 6.3 10.2 78 2.1 W 41 48 22 26 1004.9 - 0.0
08/01:20am 14.0 7.2 10.8 81 1.8 W 37 44 20 24 1005.4 - 0.0
08/01:10am 14.0 8.3 11.2 83 1.5 W 32 35 17 19 1005.0 - 0.0
08/01:00am 14.2 8.4 11.5 84 1.5 WNW 33 39 18 21 1005.0 - 0.0
08/12:50am 14.5 7.6 11.5 82 1.7 W 39 46 21 25 1005.0 - 0.0
08/12:40am 14.6 7.8 12.0 84 1.5 WNW 39 48 21 26 1005.0 - 0.0
08/12:30am 14.6 7.8 12.0 84 1.5 WNW 39 46 21 25 1005.2 - 0.0
08/12:20am 14.6 7.9 12.2 85 1.4 WNW 39 44 21 24 1005.2 - 0.0
08/12:10am 14.7 7.1 11.9 83 1.6 WNW 43 48 23 26 1005.2 - 0.0
08/12:00am 14.6 7.9 12.2 85 1.4 WNW 39 48 21 26 1005.5 - 0.0
 
Date/Time
EDT
Temp
°C
App
Temp
°C
Dew
Point
°C
Rel
Hum
%
Delta-T
°C
Wind Press
QNH
hPa
Press
MSL
hPa
Rain since
9am
mm
Dir  Spd
km/h
Gust
km/h
Spd
kts
Gust
kts
07/11:50pm 14.5 7.8 12.4 87 1.2 WNW 39 43 21 23 1005.5 - 0.0
07/11:40pm 14.3 8.3 13.2 93 0.6 WNW 37 41 20 22 1005.3 - 0.0
07/11:30pm 14.0 8.9 13.6 97 0.2 WNW 33 35 18 19 1005.2 - 0.0
07/11:20pm 13.8 8.7 13.8 100 0.0 NW 33 44 18 24 1005.1 - 0.0
07/11:10pm 13.8 7.2 13.7 99 0.1 NW 41 48 22 26 1005.0 - 0.0
07/11:00pm 13.8 7.1 13.5 98 0.2 NW 41 44 22 24 1005.0 - 0.0
07/10:50pm 13.7 7.4 13.4 98 0.2 NW 39 43 21 23 1004.8 - 0.0
07/10:40pm 13.7 8.5 13.4 98 0.2 NW 33 37 18 20 1005.1 - 0.0
07/10:30pm 13.7 8.1 13.4 98 0.2 NW 35 37 19 20 1005.1 - 0.0
07/10:20pm 14.0 8.4 13.4 96 0.3 NW 35 37 19 20 1005.2 - 0.0
07/10:10pm 14.2 8.9 13.1 93 0.6 NW 33 39 18 21 1005.3 - 0.0
07/10:00pm 14.2 10.6 12.9 92 0.7 NW 24 33 13 18 1005.4 - 0.0
07/09:50pm 14.2 10.9 12.8 91 0.8 NW 22 30 12 16 1005.6 - 0.0
07/09:40pm 14.2 11.3 12.9 92 0.7 NW 20 24 11 13 1005.9 - 0.0
07/09:30pm 14.3 11.5 13.2 93 0.6 NW 20 24 11 13 1005.7 - 0.0
07/09:20pm 14.4 10.5 13.2 92 0.7 NW 26 30 14 16 1005.4 - 0.0
07/09:10pm 14.4 10.5 13.3 93 0.6 NW 26 30 14 16 1005.3 - 0.0
07/09:00pm 14.4 10.8 13.2 92 0.7 NW 24 26 13 14 1005.4 - 0.0
07/08:50pm 14.4 10.4 13.1 92 0.7 NW 26 32 14 17 1005.4 - 0.0
07/08:40pm 14.5 10.1 12.9 90 0.9 NW 28 33 15 18 1005.1 - 0.0
07/08:30pm 14.7 9.8 12.6 87 1.2 NW 30 33 16 18 1004.9 - 0.0
07/08:20pm 14.8 9.8 12.1 84 1.5 NNW 30 33 16 18 1004.9 - 0.0
07/08:10pm 15.0 9.7 11.3 78 2.1 NNW 30 33 16 18 1004.8 - 0.0
07/08:00pm 15.3 9.6 9.9 70 2.9 NNW 30 32 16 17 1004.9 - 0.0
07/07:50pm 15.9 9.7 9.4 65 3.5 NNW 32 35 17 19 1004.9 - 0.0
07/07:40pm 16.3 10.3 8.6 60 4.1 NNW 30 33 16 18 1005.0 - 0.0
07/07:30pm 16.7 10.1 7.9 56 4.6 NNW 32 37 17 20 1004.8 - 0.0
07/07:20pm 17.1 10.4 7.3 52 5.1 NNW 32 35 17 19 1004.9 - 0.0
07/07:10pm 17.6 10.9 7.3 51 5.4 NNW 32 33 17 18 1004.9 - 0.0

Latest Capital City Observations: Canberra | Sydney | Melbourne | Brisbane | Adelaide | Perth | Hobart | Darwin

Other formats

Comma delimited format used in spreadsheet applications
http://www.bom.gov.au/fwo/IDN60903/IDN60903.99763.axf

JavaScript Object Notation format (JSON) in row-major order
http://www.bom.gov.au/fwo/IDN60903/IDN60903.99763.json

Data quality

Most of these data are generated automatically and are frequently updated. Quality checks on data are not normally performed. It is possible for incorrect values to appear. Refer to information at About Latest Weather Observations and please check the disclaimer before using these data.